createdAt,value
2018-12-07T00:01:48.511Z,4.00
2018-12-07T00:04:17.377Z,4.10
2018-12-07T00:06:46.878Z,4.00
2018-12-07T00:09:16.645Z,3.90
2018-12-07T00:11:45.262Z,4.00
2018-12-07T00:14:14.380Z,4.00
2018-12-07T00:16:43.436Z,4.00
2018-12-07T00:19:12.193Z,3.90
2018-12-07T00:21:40.613Z,4.00
2018-12-07T00:24:09.287Z,3.80
2018-12-07T00:26:39.568Z,3.70
2018-12-07T00:29:07.758Z,3.80
2018-12-07T00:31:36.606Z,3.90
2018-12-07T00:34:05.146Z,4.00
2018-12-07T00:36:33.974Z,4.00
2018-12-07T00:39:03.438Z,4.00
2018-12-07T00:41:32.396Z,4.10
2018-12-07T00:44:01.171Z,4.20
2018-12-07T00:46:30.462Z,4.30
2018-12-07T00:48:58.558Z,4.30
2018-12-07T00:51:27.428Z,4.40
2018-12-07T00:53:56.319Z,4.40
2018-12-07T00:56:26.049Z,4.40
2018-12-07T00:58:55.244Z,4.50
2018-12-07T01:01:25.011Z,4.60
2018-12-07T01:03:55.551Z,4.70
2018-12-07T01:06:24.323Z,4.70
2018-12-07T01:08:53.200Z,4.80
2018-12-07T01:11:21.756Z,4.70
2018-12-07T01:13:50.244Z,4.80
2018-12-07T01:16:19.012Z,4.80
2018-12-07T01:18:47.115Z,4.90
2018-12-07T01:21:16.018Z,4.90
2018-12-07T01:23:45.384Z,4.90
2018-12-07T01:26:14.715Z,4.90
2018-12-07T01:28:44.825Z,4.90
2018-12-07T01:31:13.103Z,4.90
2018-12-07T01:33:42.097Z,4.90
2018-12-07T01:36:11.752Z,4.70
2018-12-07T01:38:41.201Z,4.70
2018-12-07T01:41:11.596Z,4.70
2018-12-07T01:43:41.224Z,4.80
2018-12-07T01:46:11.429Z,4.70
2018-12-07T01:48:40.078Z,4.80
2018-12-07T01:51:08.304Z,4.80
2018-12-07T01:53:37.287Z,4.70
2018-12-07T01:56:06.146Z,4.70
2018-12-07T01:58:35.272Z,4.70
2018-12-07T02:01:04.095Z,4.50
2018-12-07T02:03:32.771Z,4.50
2018-12-07T02:06:01.666Z,4.30
2018-12-07T02:08:30.097Z,4.40
2018-12-07T02:10:59.809Z,4.50
2018-12-07T02:13:28.811Z,4.60
2018-12-07T02:15:57.420Z,4.70
2018-12-07T02:18:26.235Z,4.70
2018-12-07T02:20:54.968Z,4.60
2018-12-07T02:23:24.503Z,4.70
2018-12-07T02:25:53.188Z,4.80
2018-12-07T02:28:21.885Z,5.10
2018-12-07T02:30:50.343Z,5.30
2018-12-07T02:33:19.116Z,5.60
2018-12-07T02:35:48.673Z,5.80
2018-12-07T02:38:17.501Z,5.90
2018-12-07T02:40:47.256Z,6.10
2018-12-07T02:43:17.773Z,6.30
2018-12-07T02:45:47.377Z,6.40
2018-12-07T02:48:15.969Z,6.50
2018-12-07T02:50:44.820Z,6.50
2018-12-07T02:53:13.638Z,6.60
2018-12-07T02:55:41.817Z,6.50
2018-12-07T02:58:10.175Z,6.60
2018-12-07T03:00:40.227Z,6.50
2018-12-07T03:03:08.444Z,6.40
2018-12-07T03:05:37.349Z,6.20
2018-12-07T03:08:05.537Z,6.30
2018-12-07T03:10:36.252Z,6.20
2018-12-07T03:13:06.263Z,6.10
2018-12-07T03:15:35.194Z,6.20
2018-12-07T03:18:04.541Z,6.50
2018-12-07T03:20:34.938Z,6.60
2018-12-07T03:23:03.553Z,6.70
2018-12-07T03:25:32.391Z,6.90
2018-12-07T03:28:01.940Z,6.80
2018-12-07T03:30:30.877Z,7.00
2018-12-07T03:33:00.515Z,7.10
2018-12-07T03:35:28.859Z,7.10
2018-12-07T03:37:57.632Z,7.00
2018-12-07T03:40:25.823Z,7.20
2018-12-07T03:42:53.852Z,7.20
2018-12-07T03:45:22.675Z,7.30
2018-12-07T03:47:52.591Z,7.30
2018-12-07T03:50:21.762Z,7.50
2018-12-07T03:52:51.255Z,7.50
2018-12-07T03:55:19.398Z,7.50
2018-12-07T03:57:47.348Z,7.60
2018-12-07T04:00:15.968Z,7.70
2018-12-07T04:02:45.439Z,7.60
2018-12-07T04:05:15.475Z,7.80
2018-12-07T04:07:43.577Z,7.70
2018-12-07T04:10:11.672Z,7.80
2018-12-07T04:12:40.130Z,7.80
2018-12-07T04:15:09.660Z,7.90
2018-12-07T04:17:37.986Z,8.00
2018-12-07T04:20:06.528Z,8.00
2018-12-07T04:22:36.382Z,7.90
2018-12-07T04:25:05.868Z,7.90
2018-12-07T04:27:35.070Z,7.90
2018-12-07T04:30:15.659Z,7.90
2018-12-07T04:32:45.367Z,7.70
2018-12-07T04:35:14.108Z,7.70
2018-12-07T04:37:43.478Z,7.80
2018-12-07T04:40:11.742Z,7.80
2018-12-07T04:42:41.903Z,7.80
2018-12-07T04:45:10.685Z,7.90
2018-12-07T04:47:38.829Z,7.90
2018-12-07T04:50:07.248Z,8.00
2018-12-07T04:52:36.132Z,8.20
2018-12-07T04:55:05.666Z,8.30
2018-12-07T04:57:35.416Z,8.30
2018-12-07T05:00:05.874Z,8.30
2018-12-07T05:02:34.394Z,8.30
2018-12-07T05:05:03.288Z,8.40
2018-12-07T05:07:32.729Z,8.70
2018-12-07T05:10:02.450Z,8.60
2018-12-07T05:12:30.417Z,8.60
2018-12-07T05:14:58.996Z,8.60
2018-12-07T05:17:29.715Z,8.60
2018-12-07T05:19:58.930Z,8.60
2018-12-07T05:22:28.129Z,8.70
2018-12-07T05:24:56.326Z,8.60
2018-12-07T05:27:25.109Z,8.60
2018-12-07T05:29:54.796Z,8.60
2018-12-07T05:32:23.785Z,8.60
2018-12-07T05:34:52.618Z,8.60
2018-12-07T05:37:23.382Z,8.60
2018-12-07T05:39:52.093Z,8.60
2018-12-07T05:42:20.863Z,8.60
2018-12-07T05:44:50.824Z,8.50
2018-12-07T05:47:18.956Z,8.60
2018-12-07T05:49:48.453Z,8.60
2018-12-07T05:52:18.132Z,8.70
2018-12-07T05:54:46.246Z,8.80
2018-12-07T05:57:14.227Z,8.80
2018-12-07T05:59:43.574Z,8.50
2018-12-07T06:02:12.087Z,8.70
2018-12-07T06:04:40.624Z,8.60
2018-12-07T06:07:09.308Z,8.50
2018-12-07T06:09:37.632Z,8.50
2018-12-07T06:12:06.460Z,8.40
2018-12-07T06:14:36.527Z,8.30
2018-12-07T06:17:07.060Z,8.30
2018-12-07T06:19:37.463Z,8.20
2018-12-07T06:22:09.135Z,8.20
2018-12-07T06:24:38.036Z,8.10
2018-12-07T06:27:06.088Z,8.30
2018-12-07T06:29:34.925Z,8.20
2018-12-07T06:32:05.681Z,8.20
2018-12-07T06:34:33.779Z,8.20
2018-12-07T06:37:12.370Z,8.20
2018-12-07T06:39:41.042Z,8.20
2018-12-07T06:42:09.697Z,8.20
2018-12-07T06:44:39.709Z,7.90
2018-12-07T06:47:07.950Z,7.90
2018-12-07T06:49:39.795Z,8.00
2018-12-07T06:52:08.700Z,7.90
2018-12-07T06:54:37.956Z,7.80
2018-12-07T06:57:06.042Z,7.90
2018-12-07T06:59:35.960Z,7.90
2018-12-07T07:02:05.420Z,7.90
2018-12-07T07:04:34.318Z,7.60
2018-12-07T07:07:05.280Z,7.70
2018-12-07T07:09:33.638Z,7.70
2018-12-07T07:12:01.984Z,7.70
2018-12-07T07:14:30.604Z,7.80
2018-12-07T07:16:58.593Z,7.80
2018-12-07T07:19:28.371Z,7.90
2018-12-07T07:22:00.701Z,8.00
2018-12-07T07:24:35.466Z,8.00
2018-12-07T07:27:04.423Z,8.00
2018-12-07T07:29:33.127Z,7.90
2018-12-07T07:32:02.999Z,7.90
2018-12-07T07:34:33.072Z,7.90
2018-12-07T07:37:02.175Z,7.90
2018-12-07T07:39:30.382Z,7.80
2018-12-07T07:41:59.967Z,7.70
2018-12-07T07:44:28.268Z,7.90
2018-12-07T07:46:57.610Z,8.10
2018-12-07T07:49:25.806Z,8.40
2018-12-07T07:51:55.733Z,8.60
2018-12-07T07:54:24.850Z,8.70
2018-12-07T07:56:54.322Z,8.70
2018-12-07T07:59:24.368Z,8.80
2018-12-07T08:01:53.601Z,8.90
2018-12-07T08:04:22.950Z,9.00
2018-12-07T08:06:53.230Z,9.30
2018-12-07T08:09:28.338Z,9.30
2018-12-07T08:11:57.926Z,9.50
2018-12-07T08:14:26.857Z,9.70
2018-12-07T08:16:54.922Z,9.90
2018-12-07T08:19:22.948Z,10.10
2018-12-07T08:21:58.380Z,10.00
2018-12-07T08:24:27.341Z,10.10
2018-12-07T08:26:57.530Z,10.10
2018-12-07T08:29:27.609Z,10.10
2018-12-07T08:31:55.752Z,10.00
2018-12-07T08:34:24.615Z,10.10
2018-12-07T08:36:55.998Z,10.20
2018-12-07T08:39:25.767Z,10.40
2018-12-07T08:41:54.323Z,10.60
2018-12-07T08:44:23.091Z,10.80
2018-12-07T08:46:51.871Z,11.00
2018-12-07T08:49:25.667Z,11.10
2018-12-07T08:52:02.091Z,11.20
2018-12-07T08:54:31.492Z,11.30
2018-12-07T08:57:00.303Z,11.60
2018-12-07T08:59:29.083Z,11.80
2018-12-07T09:01:57.849Z,12.10
2018-12-07T09:04:26.505Z,12.10
2018-12-07T09:06:56.535Z,12.00
2018-12-07T09:09:25.337Z,11.90
2018-12-07T09:11:55.587Z,12.10
2018-12-07T09:14:23.812Z,12.20
2018-12-07T09:16:53.635Z,12.20
2018-12-07T09:19:23.572Z,12.30
2018-12-07T09:21:57.867Z,12.30
2018-12-07T09:24:27.395Z,12.20
2018-12-07T09:26:57.136Z,12.20
2018-12-07T09:29:25.804Z,12.00
2018-12-07T09:31:55.812Z,12.10
2018-12-07T09:34:25.450Z,12.10
2018-12-07T09:36:55.406Z,12.20
2018-12-07T09:39:23.523Z,12.30
2018-12-07T09:41:54.468Z,12.20
2018-12-07T09:44:24.446Z,12.30
2018-12-07T09:46:56.216Z,12.50
2018-12-07T09:49:26.180Z,12.60
2018-12-07T09:52:06.949Z,12.40
2018-12-07T09:54:38.497Z,12.60
2018-12-07T09:57:06.666Z,12.90
2018-12-07T09:59:37.316Z,12.70
2018-12-07T10:02:06.607Z,12.70
2018-12-07T10:04:37.035Z,12.80
2018-12-07T10:09:58.541Z,12.70
2018-12-07T10:12:28.605Z,12.50
2018-12-07T10:14:56.877Z,12.50
2018-12-07T10:17:26.637Z,12.70
2018-12-07T10:19:57.481Z,12.80
2018-12-07T10:22:32.977Z,13.10
2018-12-07T10:25:08.444Z,13.10
2018-12-07T10:27:40.035Z,13.20
2018-12-07T10:30:10.699Z,13.30
2018-12-07T10:32:40.011Z,13.10
2018-12-07T10:35:10.191Z,13.10
2018-12-07T10:40:31.350Z,13.10
2018-12-07T10:43:01.098Z,13.30
2018-12-07T10:45:29.361Z,13.40
2018-12-07T10:47:58.019Z,13.40
2018-12-07T10:50:27.673Z,13.40
2018-12-07T10:52:56.611Z,13.60
2018-12-07T10:55:30.915Z,13.60
2018-12-07T10:58:01.572Z,13.40
2018-12-07T11:00:38.900Z,13.20
2018-12-07T11:03:18.328Z,13.00
2018-12-07T11:05:54.044Z,13.00
2018-12-07T11:08:28.757Z,13.00
2018-12-07T11:11:02.014Z,13.10
2018-12-07T11:13:33.662Z,13.00
2018-12-07T11:16:08.345Z,13.00
2018-12-07T11:18:43.180Z,12.80
2018-12-07T11:21:18.816Z,12.90
2018-12-07T11:23:59.769Z,12.90
2018-12-07T11:26:35.551Z,13.10
2018-12-07T11:29:10.689Z,13.10
2018-12-07T11:31:44.816Z,13.10
2018-12-07T11:34:27.235Z,13.00
2018-12-07T11:36:59.666Z,13.20
2018-12-07T11:39:29.513Z,13.20
2018-12-07T11:42:00.750Z,13.20
2018-12-07T11:44:30.004Z,13.10
2018-12-07T11:46:59.865Z,13.20
2018-12-07T11:49:31.467Z,13.30
2018-12-07T11:52:04.978Z,13.40
2018-12-07T11:54:36.047Z,13.40
2018-12-07T11:57:05.654Z,13.50
2018-12-07T11:59:34.463Z,13.50
2018-12-07T12:02:08.233Z,13.50
2018-12-07T12:04:37.868Z,13.50
2018-12-07T12:07:06.042Z,13.40
2018-12-07T12:09:35.749Z,13.30
2018-12-07T12:12:05.127Z,13.20
2018-12-07T12:14:34.041Z,13.20
2018-12-07T12:17:03.915Z,13.30
2018-12-07T12:19:33.422Z,13.40
2018-12-07T12:22:03.445Z,13.60
2018-12-07T12:24:35.037Z,13.80
2018-12-07T12:27:08.542Z,14.00
2018-12-07T12:29:37.695Z,14.00
2018-12-07T12:32:07.095Z,14.00
2018-12-07T12:34:37.596Z,13.80
2018-12-07T12:37:07.078Z,13.80
2018-12-07T12:39:36.465Z,13.70
2018-12-07T12:42:07.373Z,13.60
2018-12-07T12:44:36.080Z,13.40
2018-12-07T12:47:07.845Z,13.40
2018-12-07T12:49:41.019Z,13.50
2018-12-07T12:52:12.715Z,13.60
2018-12-07T12:54:42.205Z,13.60
2018-12-07T12:59:52.371Z,13.90
2018-12-07T13:02:23.132Z,14.10
2018-12-07T13:07:37.269Z,13.90
2018-12-07T13:10:14.615Z,13.90
2018-12-07T13:12:46.776Z,13.70
2018-12-07T13:15:17.465Z,13.70
2018-12-07T13:17:51.323Z,13.40
2018-12-07T13:20:20.513Z,13.50
2018-12-07T13:23:00.530Z,13.80
2018-12-07T13:25:37.036Z,13.80
2018-12-07T13:28:11.659Z,13.60
2018-12-07T13:30:41.361Z,13.50
2018-12-07T13:33:09.739Z,13.50
2018-12-07T13:35:52.365Z,13.40
2018-12-07T13:38:21.406Z,13.30
2018-12-07T13:41:01.315Z,13.40
2018-12-07T13:43:38.997Z,13.10
2018-12-07T13:46:09.445Z,13.20
2018-12-07T13:48:41.308Z,13.30
2018-12-07T13:51:13.275Z,13.40
2018-12-07T13:53:43.016Z,13.30
2018-12-07T13:58:52.708Z,13.10
2018-12-07T14:01:28.638Z,13.00
2018-12-07T14:04:00.729Z,12.90
2018-12-07T14:06:32.467Z,13.00
2018-12-07T14:09:01.253Z,12.90
2018-12-07T14:11:30.777Z,13.00
2018-12-07T14:14:03.441Z,12.90
2018-12-07T14:16:34.942Z,12.80
2018-12-07T14:19:08.580Z,12.70
2018-12-07T14:21:38.125Z,12.60
2018-12-07T14:24:07.219Z,12.50
2018-12-07T14:26:37.972Z,12.50
2018-12-07T14:29:06.409Z,12.60
2018-12-07T14:31:35.820Z,12.60
2018-12-07T14:34:05.965Z,12.50
2018-12-07T14:36:34.982Z,12.60
2018-12-07T14:39:10.421Z,12.60
2018-12-07T14:41:38.796Z,12.60
2018-12-07T14:44:08.552Z,12.60
2018-12-07T14:46:39.156Z,12.60
2018-12-07T14:49:10.051Z,12.60
2018-12-07T14:51:38.817Z,12.60
2018-12-07T14:54:13.916Z,12.60
2018-12-07T14:56:43.461Z,12.50
2018-12-07T14:59:13.748Z,12.40
2018-12-07T15:01:42.287Z,12.30
2018-12-07T15:04:11.280Z,12.30
2018-12-07T15:06:41.788Z,12.10
2018-12-07T15:09:15.279Z,11.90
2018-12-07T15:11:43.921Z,11.70
2018-12-07T15:14:13.556Z,11.70
2018-12-07T15:16:50.013Z,11.80
2018-12-07T15:19:20.025Z,11.70
2018-12-07T15:21:50.875Z,11.40
2018-12-07T15:24:19.681Z,11.30
2018-12-07T15:26:49.542Z,11.30
2018-12-07T15:29:18.779Z,11.30
2018-12-07T15:31:51.465Z,11.30
2018-12-07T15:34:20.297Z,11.40
2018-12-07T15:36:53.951Z,11.50
2018-12-07T15:39:23.239Z,11.30
2018-12-07T15:41:52.981Z,11.20
2018-12-07T15:44:22.123Z,11.00
2018-12-07T15:46:50.771Z,11.00
2018-12-07T15:49:20.658Z,10.80
2018-12-07T15:51:50.003Z,10.70
2018-12-07T15:54:28.221Z,10.60
2018-12-07T15:56:58.837Z,10.60
2018-12-07T15:59:36.704Z,10.50
2018-12-07T16:02:09.518Z,10.40
2018-12-07T16:04:40.730Z,10.40
2018-12-07T16:07:13.159Z,10.30
2018-12-07T16:09:43.998Z,10.20
2018-12-07T16:12:14.368Z,10.00
2018-12-07T16:14:44.927Z,10.10
2018-12-07T16:17:14.218Z,10.30
2018-12-07T16:19:46.316Z,10.30
2018-12-07T16:22:18.139Z,10.20
2018-12-07T16:24:50.951Z,10.30
2018-12-07T16:27:20.327Z,10.30
2018-12-07T16:29:50.107Z,10.30
2018-12-07T16:32:18.710Z,10.10
2018-12-07T16:34:49.415Z,10.20
2018-12-07T16:37:19.995Z,10.20
2018-12-07T16:39:49.275Z,9.90
2018-12-07T16:42:19.689Z,9.80
2018-12-07T16:44:50.794Z,9.90
2018-12-07T16:47:21.786Z,9.90
2018-12-07T16:49:53.433Z,10.00
2018-12-07T16:52:24.594Z,10.10
2018-12-07T16:54:56.448Z,10.00
2018-12-07T16:57:26.175Z,10.20
2018-12-07T16:59:56.698Z,10.40
2018-12-07T17:02:32.210Z,10.30
2018-12-07T17:05:02.485Z,10.30
2018-12-07T17:07:39.103Z,10.40
2018-12-07T17:10:08.718Z,10.50
2018-12-07T17:12:40.893Z,10.50
2018-12-07T17:15:15.739Z,10.40
2018-12-07T17:17:48.425Z,10.30
2018-12-07T17:20:17.964Z,10.40
2018-12-07T17:22:48.664Z,10.40
2018-12-07T17:25:19.921Z,10.50
2018-12-07T17:27:48.219Z,10.30
2018-12-07T17:32:58.264Z,10.20
2018-12-07T17:35:28.794Z,10.30
2018-12-07T17:38:08.062Z,10.40
2018-12-07T17:40:39.598Z,10.40
2018-12-07T17:43:08.615Z,10.40
2018-12-07T17:45:40.088Z,10.40
2018-12-07T17:48:08.890Z,10.40
2018-12-07T17:50:42.680Z,10.30
2018-12-07T17:53:16.314Z,10.10
2018-12-07T17:55:47.920Z,10.10
2018-12-07T17:58:22.599Z,10.10
2018-12-07T18:00:58.082Z,10.20
2018-12-07T18:03:32.690Z,10.20
2018-12-07T18:06:07.250Z,10.20
2018-12-07T18:08:45.604Z,10.20
2018-12-07T18:11:21.484Z,10.20
2018-12-07T18:13:53.410Z,10.20
2018-12-07T18:16:27.095Z,10.10
2018-12-07T18:18:57.438Z,10.00
2018-12-07T18:21:28.719Z,10.10
2018-12-07T18:24:04.387Z,10.10
2018-12-07T18:26:33.137Z,10.20
2018-12-07T18:29:05.432Z,10.20
2018-12-07T18:31:42.346Z,10.10
2018-12-07T18:34:20.622Z,10.10
2018-12-07T18:37:05.105Z,10.20
2018-12-07T18:39:40.460Z,10.30
2018-12-07T18:42:10.276Z,10.40
2018-12-07T18:44:54.397Z,10.40
2018-12-07T18:47:36.816Z,10.40
2018-12-07T18:50:06.250Z,10.30
2018-12-07T18:52:40.050Z,10.20
2018-12-07T18:55:14.575Z,10.30
2018-12-07T18:57:47.999Z,10.40
2018-12-07T19:00:21.474Z,10.40
2018-12-07T19:05:34.614Z,10.50
2018-12-07T19:08:11.703Z,10.50
2018-12-07T19:10:58.678Z,10.40
2018-12-07T19:16:10.754Z,10.30
2018-12-07T19:18:39.674Z,10.40
2018-12-07T19:21:23.746Z,10.50
2018-12-07T19:23:59.161Z,10.30
2018-12-07T19:26:31.906Z,10.40
2018-12-07T19:29:01.114Z,10.50
2018-12-07T19:31:31.881Z,10.80
2018-12-07T19:34:07.352Z,10.80
2018-12-07T19:36:42.888Z,10.50
2018-12-07T19:39:18.649Z,10.60
2018-12-07T19:41:49.143Z,10.60
2018-12-07T19:44:19.006Z,10.70
2018-12-07T19:46:55.314Z,10.70
2018-12-07T19:49:25.864Z,10.70
2018-12-07T19:52:02.067Z,10.80
2018-12-07T19:54:50.649Z,10.70
2018-12-07T19:57:20.417Z,10.70
2018-12-07T19:59:54.495Z,10.80
2018-12-07T20:02:31.509Z,10.60
2018-12-07T20:05:04.676Z,10.40
2018-12-07T20:07:42.315Z,10.50
2018-12-07T20:10:11.870Z,10.40
2018-12-07T20:12:45.404Z,10.40
2018-12-07T20:15:14.827Z,10.30
2018-12-07T20:17:59.627Z,10.10
2018-12-07T20:20:34.139Z,10.00
2018-12-07T20:23:10.743Z,9.90
2018-12-07T20:25:47.289Z,9.80
2018-12-07T20:28:18.193Z,9.90
2018-12-07T20:30:47.863Z,9.90
2018-12-07T20:33:20.434Z,9.80
2018-12-07T20:35:51.629Z,10.00
2018-12-07T20:38:22.884Z,10.10
2018-12-07T20:40:53.633Z,10.10
2018-12-07T20:43:22.709Z,10.10
2018-12-07T20:45:51.759Z,10.10
2018-12-07T20:48:25.216Z,10.00
2018-12-07T20:51:02.890Z,10.10
2018-12-07T20:53:35.997Z,10.00
2018-12-07T20:56:06.029Z,10.00
2018-12-07T20:58:37.471Z,10.00
2018-12-07T21:01:07.251Z,9.90
2018-12-07T21:03:57.189Z,9.90
2018-12-07T21:07:44.464Z,9.80
2018-12-07T21:11:27.521Z,9.80
2018-12-07T21:14:43.391Z,9.90
2018-12-07T21:17:17.205Z,9.60
2018-12-07T21:20:24.319Z,9.80
2018-12-07T21:25:34.711Z,9.90
2018-12-07T21:28:09.776Z,9.90
2018-12-07T21:30:54.396Z,10.00
2018-12-07T21:33:44.624Z,10.20
2018-12-07T21:36:46.633Z,10.00
2018-12-07T21:40:26.874Z,10.00
2018-12-07T21:42:56.240Z,10.00
2018-12-07T21:45:29.735Z,9.90
2018-12-07T21:48:25.001Z,9.80
2018-12-07T21:51:10.620Z,9.80
2018-12-07T21:53:41.405Z,9.70
2018-12-07T21:56:13.467Z,9.70
2018-12-07T21:58:43.790Z,9.80
2018-12-07T22:01:13.951Z,9.80
2018-12-07T22:03:51.560Z,9.90
2018-12-07T22:06:22.764Z,9.90
2018-12-07T22:08:53.564Z,9.80
2018-12-07T22:11:24.107Z,9.80
2018-12-07T22:13:53.592Z,9.80
2018-12-07T22:16:24.133Z,9.70
2018-12-07T22:18:52.640Z,9.50
2018-12-07T22:21:21.564Z,9.50
2018-12-07T22:23:53.041Z,9.80
2018-12-07T22:26:23.963Z,10.10
2018-12-07T22:28:55.614Z,10.30
2018-12-07T22:31:24.134Z,10.70
2018-12-07T22:33:53.880Z,10.70
2018-12-07T22:36:25.719Z,10.70
2018-12-07T22:38:56.676Z,10.70
2018-12-07T22:41:26.462Z,10.70
2018-12-07T22:43:55.851Z,10.60
2018-12-07T22:46:24.200Z,10.70
2018-12-07T22:48:53.928Z,10.80
2018-12-07T22:51:23.882Z,11.00
2018-12-07T22:53:52.861Z,11.00
2018-12-07T22:56:22.561Z,11.10
2018-12-07T22:58:52.869Z,11.20
2018-12-07T23:01:23.982Z,11.20
2018-12-07T23:03:52.731Z,11.10
2018-12-07T23:06:21.836Z,11.00
2018-12-07T23:08:52.203Z,10.80
2018-12-07T23:11:20.435Z,10.90
2018-12-07T23:13:48.833Z,10.90
2018-12-07T23:16:17.474Z,10.90
2018-12-07T23:18:45.716Z,11.00
2018-12-07T23:21:14.597Z,11.00
2018-12-07T23:23:44.486Z,11.10
2018-12-07T23:26:12.544Z,11.00
2018-12-07T23:28:40.753Z,10.90
2018-12-07T23:31:08.890Z,10.90
2018-12-07T23:33:38.989Z,10.90
2018-12-07T23:36:07.907Z,11.00
2018-12-07T23:38:37.176Z,10.90
2018-12-07T23:41:06.176Z,11.00
2018-12-07T23:43:36.621Z,10.90
2018-12-07T23:46:05.605Z,10.70
2018-12-07T23:48:34.454Z,10.80
2018-12-07T23:51:02.731Z,11.00
2018-12-07T23:53:31.643Z,10.80
2018-12-07T23:56:01.114Z,10.60
2018-12-07T23:58:30.183Z,10.70
